sensor_id;sensor_type;location;lat;lon;timestamp;pressure;altitude;pressure_sealevel;temperature;humidity
21504;BME280;10913;51.992;9.228;2024-03-02T00:01:58;99117.91;;;8.01;99.39
21504;BME280;10913;51.992;9.228;2024-03-02T00:04:23;99121.41;;;8.02;99.29
21504;BME280;10913;51.992;9.228;2024-03-02T00:06:51;99109.13;;;8.02;99.36
21504;BME280;10913;51.992;9.228;2024-03-02T00:09:18;99103.00;;;8.02;99.51
21504;BME280;10913;51.992;9.228;2024-03-02T00:11:43;99109.16;;;8.01;99.53
21504;BME280;10913;51.992;9.228;2024-03-02T00:14:09;99100.38;;;8.00;99.54
21504;BME280;10913;51.992;9.228;2024-03-02T00:16:34;99107.41;;;8.00;99.61
21504;BME280;10913;51.992;9.228;2024-03-02T00:19:05;99109.22;;;7.98;99.56
21504;BME280;10913;51.992;9.228;2024-03-02T00:21:32;99106.56;;;7.99;99.49
21504;BME280;10913;51.992;9.228;2024-03-02T00:23:58;99111.84;;;7.98;99.56
21504;BME280;10913;51.992;9.228;2024-03-02T00:26:25;99106.59;;;7.96;99.43
21504;BME280;10913;51.992;9.228;2024-03-02T00:28:54;99112.78;;;7.93;99.41
21504;BME280;10913;51.992;9.228;2024-03-02T00:31:22;99113.66;;;7.92;99.25
21504;BME280;10913;51.992;9.228;2024-03-02T00:33:48;99108.38;;;7.94;99.15
21504;BME280;10913;51.992;9.228;2024-03-02T00:36:15;99117.16;;;7.93;99.11
21504;BME280;10913;51.992;9.228;2024-03-02T00:38:48;99107.53;;;7.93;98.97
21504;BME280;10913;51.992;9.228;2024-03-02T00:41:28;99107.53;;;7.93;99.05
21504;BME280;10913;51.992;9.228;2024-03-02T00:44:01;99121.56;;;7.92;98.93
21504;BME280;10913;51.992;9.228;2024-03-02T00:46:30;99108.44;;;7.91;99.19
21504;BME280;10913;51.992;9.228;2024-03-02T00:48:59;99115.44;;;7.90;99.10
21504;BME280;10913;51.992;9.228;2024-03-02T00:51:27;99111.97;;;7.88;99.29
21504;BME280;10913;51.992;9.228;2024-03-02T00:53:54;99109.38;;;7.85;99.16
21504;BME280;10913;51.992;9.228;2024-03-02T00:56:23;99105.03;;;7.83;99.00
21504;BME280;10913;51.992;9.228;2024-03-02T00:58:49;99110.34;;;7.80;99.10
21504;BME280;10913;51.992;9.228;2024-03-02T01:01:15;99106.88;;;7.78;99.44
21504;BME280;10913;51.992;9.228;2024-03-02T01:03:41;99107.78;;;7.75;99.80
21504;BME280;10913;51.992;9.228;2024-03-02T01:06:07;99107.84;;;7.72;99.69
21504;BME280;10913;51.992;9.228;2024-03-02T01:08:36;99117.53;;;7.69;99.80
21504;BME280;10913;51.992;9.228;2024-03-02T01:11:02;99105.31;;;7.65;100.00
21504;BME280;10913;51.992;9.228;2024-03-02T01:13:28;99109.72;;;7.61;100.00
21504;BME280;10913;51.992;9.228;2024-03-02T01:15:53;99108.00;;;7.60;100.00
21504;BME280;10913;51.992;9.228;2024-03-02T01:18:19;99099.25;;;7.59;99.66
21504;BME280;10913;51.992;9.228;2024-03-02T01:20:44;99106.31;;;7.56;99.80
21504;BME280;10913;51.992;9.228;2024-03-02T01:23:10;99093.22;;;7.53;100.00
21504;BME280;10913;51.992;9.228;2024-03-02T01:25:35;99099.41;;;7.49;100.00
21504;BME280;10913;51.992;9.228;2024-03-02T01:28:01;99095.91;;;7.48;100.00
21504;BME280;10913;51.992;9.228;2024-03-02T01:30:26;99097.69;;;7.45;100.00
21504;BME280;10913;51.992;9.228;2024-03-02T01:32:51;99088.97;;;7.43;100.00
21504;BME280;10913;51.992;9.228;2024-03-02T01:35:17;99096.06;;;7.38;100.00
21504;BME280;10913;51.992;9.228;2024-03-02T01:37:42;99090.84;;;7.35;100.00
21504;BME280;10913;51.992;9.228;2024-03-02T01:40:08;99089.97;;;7.34;100.00
21504;BME280;10913;51.992;9.228;2024-03-02T01:42:37;99087.38;;;7.31;100.00
21504;BME280;10913;51.992;9.228;2024-03-02T01:45:07;99087.41;;;7.30;100.00
21504;BME280;10913;51.992;9.228;2024-03-02T01:47:33;99083.91;;;7.29;100.00
21504;BME280;10913;51.992;9.228;2024-03-02T01:49:59;99076.97;;;7.23;100.00
21504;BME280;10913;51.992;9.228;2024-03-02T01:52:24;99080.50;;;7.21;100.00
21504;BME280;10913;51.992;9.228;2024-03-02T01:54:50;99076.19;;;7.18;100.00
21504;BME280;10913;51.992;9.228;2024-03-02T01:57:15;99073.59;;;7.15;100.00
21504;BME280;10913;51.992;9.228;2024-03-02T01:59:41;99065.75;;;7.12;100.00
21504;BME280;10913;51.992;9.228;2024-03-02T02:02:06;99077.16;;;7.08;100.00
21504;BME280;10913;51.992;9.228;2024-03-02T02:04:32;99075.44;;;7.06;100.00
21504;BME280;10913;51.992;9.228;2024-03-02T02:06:58;99072.84;;;7.04;100.00
21504;BME280;10913;51.992;9.228;2024-03-02T02:09:25;99078.06;;;7.06;100.00
21504;BME280;10913;51.992;9.228;2024-03-02T02:11:51;99073.69;;;7.06;100.00
21504;BME280;10913;51.992;9.228;2024-03-02T02:14:16;99068.41;;;7.08;100.00
21504;BME280;10913;51.992;9.228;2024-03-02T02:16:41;99071.94;;;7.07;100.00
21504;BME280;10913;51.992;9.228;2024-03-02T02:19:07;99072.81;;;7.06;100.00
21504;BME280;10913;51.992;9.228;2024-03-02T02:21:33;99067.59;;;7.04;100.00
21504;BME280;10913;51.992;9.228;2024-03-02T02:23:58;99065.00;;;7.00;100.00
21504;BME280;10913;51.992;9.228;2024-03-02T02:26:24;99064.22;;;6.95;100.00
21504;BME280;10913;51.992;9.228;2024-03-02T02:28:50;99063.38;;;6.91;100.00
21504;BME280;10913;51.992;9.228;2024-03-02T02:31:15;99063.41;;;6.88;100.00
21504;BME280;10913;51.992;9.228;2024-03-02T02:33:42;99054.69;;;6.84;100.00
21504;BME280;10913;51.992;9.228;2024-03-02T02:36:07;99061.72;;;6.81;100.00
21504;BME280;10913;51.992;9.228;2024-03-02T02:38:36;99049.56;;;6.77;100.00
21504;BME280;10913;51.992;9.228;2024-03-02T02:41:03;99049.53;;;6.78;100.00
21504;BME280;10913;51.992;9.228;2024-03-02T02:43:28;99047.81;;;6.76;100.00
21504;BME280;10913;51.992;9.228;2024-03-02T02:45:54;99054.84;;;6.74;100.00
21504;BME280;10913;51.992;9.228;2024-03-02T02:48:19;99059.25;;;6.70;100.00
21504;BME280;10913;51.992;9.228;2024-03-02T02:50:44;99048.78;;;6.66;100.00
21504;BME280;10913;51.992;9.228;2024-03-02T02:53:10;99060.19;;;6.65;100.00
21504;BME280;10913;51.992;9.228;2024-03-02T02:55:35;99049.69;;;6.63;100.00
21504;BME280;10913;51.992;9.228;2024-03-02T02:58:05;99049.72;;;6.62;100.00
21504;BME280;10913;51.992;9.228;2024-03-02T03:00:31;99054.97;;;6.60;100.00
21504;BME280;10913;51.992;9.228;2024-03-02T03:02:56;99042.78;;;6.57;100.00
21504;BME280;10913;51.992;9.228;2024-03-02T03:05:22;99049.81;;;6.55;100.00
21504;BME280;10913;51.992;9.228;2024-03-02T03:07:47;99042.84;;;6.50;100.00
21504;BME280;10913;51.992;9.228;2024-03-02T03:10:15;99051.63;;;6.47;100.00
21504;BME280;10913;51.992;9.228;2024-03-02T03:12:41;99049.00;;;6.46;100.00
21504;BME280;10913;51.992;9.228;2024-03-02T03:15:08;99046.41;;;6.44;100.00
21504;BME280;10913;51.992;9.228;2024-03-02T03:17:34;99047.28;;;6.43;100.00
21504;BME280;10913;51.992;9.228;2024-03-02T03:20:00;99042.91;;;6.44;100.00
21504;BME280;10913;51.992;9.228;2024-03-02T03:22:26;99055.16;;;6.43;100.00
21504;BME280;10913;51.992;9.228;2024-03-02T03:24:52;99061.28;;;6.44;100.00
21504;BME280;10913;51.992;9.228;2024-03-02T03:27:18;99069.13;;;6.45;100.00
21504;BME280;10913;51.992;9.228;2024-03-02T03:29:44;99062.13;;;6.47;100.00
21504;BME280;10913;51.992;9.228;2024-03-02T03:32:10;99047.25;;;6.46;100.00
21504;BME280;10913;51.992;9.228;2024-03-02T03:34:35;99047.28;;;6.45;100.00
21504;BME280;10913;51.992;9.228;2024-03-02T03:37:02;99046.44;;;6.40;100.00
21504;BME280;10913;51.992;9.228;2024-03-02T03:39:27;99037.75;;;6.36;100.00
21504;BME280;10913;51.992;9.228;2024-03-02T03:41:53;99039.56;;;6.31;100.00
21504;BME280;10913;51.992;9.228;2024-03-02T03:44:19;99036.09;;;6.25;100.00
21504;BME280;10913;51.992;9.228;2024-03-02T03:46:44;99031.75;;;6.22;100.00
21504;BME280;10913;51.992;9.228;2024-03-02T03:49:09;99022.16;;;6.21;100.00
21504;BME280;10913;51.992;9.228;2024-03-02T03:51:35;99028.25;;;6.25;100.00
21504;BME280;10913;51.992;9.228;2024-03-02T03:54:00;99026.47;;;6.27;100.00
21504;BME280;10913;51.992;9.228;2024-03-02T03:56:26;99030.81;;;6.31;100.00
21504;BME280;10913;51.992;9.228;2024-03-02T03:58:51;99031.69;;;6.31;100.00
21504;BME280;10913;51.992;9.228;2024-03-02T04:01:17;99036.06;;;6.32;100.00
21504;BME280;10913;51.992;9.228;2024-03-02T04:03:43;99037.81;;;6.30;100.00
21504;BME280;10913;51.992;9.228;2024-03-02T04:06:08;99036.09;;;6.26;100.00
21504;BME280;10913;51.992;9.228;2024-03-02T04:08:33;99036.13;;;6.23;100.00
21504;BME280;10913;51.992;9.228;2024-03-02T04:10:59;99043.19;;;6.18;100.00
21504;BME280;10913;51.992;9.228;2024-03-02T04:13:24;99035.34;;;6.15;100.00
21504;BME280;10913;51.992;9.228;2024-03-02T04:15:50;99041.50;;;6.11;100.00
21504;BME280;10913;51.992;9.228;2024-03-02T04:18:15;99045.00;;;6.10;100.00
21504;BME280;10913;51.992;9.228;2024-03-02T04:20:41;99044.13;;;6.09;100.00
21504;BME280;10913;51.992;9.228;2024-03-02T04:23:06;99037.16;;;6.08;100.00
21504;BME280;10913;51.992;9.228;2024-03-02T04:25:32;99028.41;;;6.06;100.00
21504;BME280;10913;51.992;9.228;2024-03-02T04:27:58;99035.44;;;6.03;100.00
21504;BME280;10913;51.992;9.228;2024-03-02T04:30:23;99036.31;;;6.02;100.00
21504;BME280;10913;51.992;9.228;2024-03-02T04:32:50;99038.13;;;5.98;100.00
21504;BME280;10913;51.992;9.228;2024-03-02T04:35:15;99041.66;;;5.91;100.00
21504;BME280;10913;51.992;9.228;2024-03-02T04:37:41;99046.91;;;5.90;100.00
21504;BME280;10913;51.992;9.228;2024-03-02T04:40:06;99043.41;;;5.86;100.00
21504;BME280;10913;51.992;9.228;2024-03-02T04:42:38;99040.78;;;5.87;100.00
21504;BME280;10913;51.992;9.228;2024-03-02T04:45:04;99049.53;;;5.90;100.00
21504;BME280;10913;51.992;9.228;2024-03-02T04:47:29;99055.63;;;5.92;100.00
21504;BME280;10913;51.992;9.228;2024-03-02T04:49:55;99053.88;;;5.94;100.00
21504;BME280;10913;51.992;9.228;2024-03-02T04:52:20;99067.84;;;5.96;100.00
21504;BME280;10913;51.992;9.228;2024-03-02T04:54:46;99065.22;;;5.99;100.00
21504;BME280;10913;51.992;9.228;2024-03-02T04:57:30;99066.91;;;6.00;100.00
21504;BME280;10913;51.992;9.228;2024-03-02T04:59:55;99068.66;;;6.01;100.00
21504;BME280;10913;51.992;9.228;2024-03-02T05:02:20;99062.53;;;6.02;100.00
21504;BME280;10913;51.992;9.228;2024-03-02T05:04:46;99070.41;;;6.02;100.00
21504;BME280;10913;51.992;9.228;2024-03-02T05:07:14;99064.28;;;6.00;100.00
21504;BME280;10913;51.992;9.228;2024-03-02T05:09:39;99066.97;;;5.98;100.00
21504;BME280;10913;51.992;9.228;2024-03-02T05:12:05;99067.81;;;5.99;100.00
21504;BME280;10913;51.992;9.228;2024-03-02T05:14:48;99067.81;;;5.99;100.00
21504;BME280;10913;51.992;9.228;2024-03-02T05:17:13;99063.47;;;5.98;100.00
21504;BME280;10913;51.992;9.228;2024-03-02T05:19:38;99061.78;;;5.89;100.00
21504;BME280;10913;51.992;9.228;2024-03-02T05:22:04;99060.88;;;5.85;100.00
21504;BME280;10913;51.992;9.228;2024-03-02T05:24:29;99053.91;;;5.84;100.00
21504;BME280;10913;51.992;9.228;2024-03-02T05:26:54;99057.41;;;5.82;100.00
21504;BME280;10913;51.992;9.228;2024-03-02T05:29:20;99064.38;;;5.84;100.00
21504;BME280;10913;51.992;9.228;2024-03-02T05:31:46;99058.28;;;5.85;100.00
21504;BME280;10913;51.992;9.228;2024-03-02T05:34:11;99060.88;;;5.87;100.00
21504;BME280;10913;51.992;9.228;2024-03-02T05:36:36;99064.38;;;5.87;100.00
21504;BME280;10913;51.992;9.228;2024-03-02T05:39:04;99074.84;;;5.87;100.00
21504;BME280;10913;51.992;9.228;2024-03-02T05:41:31;99065.25;;;5.86;100.00
21504;BME280;10913;51.992;9.228;2024-03-02T05:43:56;99080.97;;;5.86;100.00
21504;BME280;10913;51.992;9.228;2024-03-02T05:46:22;99079.22;;;5.87;100.00
21504;BME280;10913;51.992;9.228;2024-03-02T05:48:47;99077.50;;;5.83;100.00
21504;BME280;10913;51.992;9.228;2024-03-02T05:51:13;99074.91;;;5.80;100.00
21504;BME280;10913;51.992;9.228;2024-03-02T05:53:38;99078.47;;;5.74;100.00
21504;BME280;10913;51.992;9.228;2024-03-02T05:56:04;99074.97;;;5.75;100.00
21504;BME280;10913;51.992;9.228;2024-03-02T05:58:30;99078.44;;;5.76;100.00
21504;BME280;10913;51.992;9.228;2024-03-02T06:01:11;99080.19;;;5.77;100.00
21504;BME280;10913;51.992;9.228;2024-03-02T06:03:37;99091.53;;;5.79;100.00
21504;BME280;10913;51.992;9.228;2024-03-02T06:06:02;99088.00;;;5.80;100.00
21504;BME280;10913;51.992;9.228;2024-03-02T06:08:27;99083.63;;;5.82;100.00
21504;BME280;10913;51.992;9.228;2024-03-02T06:10:53;99079.25;;;5.81;100.00
21504;BME280;10913;51.992;9.228;2024-03-02T06:13:18;99087.16;;;5.79;100.00
21504;BME280;10913;51.992;9.228;2024-03-02T06:15:44;99082.75;;;5.80;100.00
21504;BME280;10913;51.992;9.228;2024-03-02T06:18:09;99088.84;;;5.83;100.00
21504;BME280;10913;51.992;9.228;2024-03-02T06:20:34;99093.22;;;5.86;100.00
21504;BME280;10913;51.992;9.228;2024-03-02T06:23:00;99092.34;;;5.90;100.00
21504;BME280;10913;51.992;9.228;2024-03-02T06:25:25;99085.34;;;5.94;100.00
21504;BME280;10913;51.992;9.228;2024-03-02T06:27:51;99092.25;;;6.01;100.00
21504;BME280;10913;51.992;9.228;2024-03-02T06:30:16;99092.19;;;6.08;100.00
21504;BME280;10913;51.992;9.228;2024-03-02T06:32:41;99100.91;;;6.12;100.00
21504;BME280;10913;51.992;9.228;2024-03-02T06:35:07;99105.25;;;6.19;100.00
21504;BME280;10913;51.992;9.228;2024-03-02T06:37:35;99102.53;;;6.25;100.00
21504;BME280;10913;51.992;9.228;2024-03-02T06:40:01;99118.22;;;6.34;100.00
21504;BME280;10913;51.992;9.228;2024-03-02T06:42:27;99119.84;;;6.44;100.00
21504;BME280;10913;51.992;9.228;2024-03-02T06:44:53;99112.75;;;6.55;100.00
21504;BME280;10913;51.992;9.228;2024-03-02T06:47:18;99117.81;;;6.74;100.00
21504;BME280;10913;51.992;9.228;2024-03-02T06:49:45;99118.53;;;6.88;100.00
21504;BME280;10913;51.992;9.228;2024-03-02T06:52:10;99120.13;;;7.03;100.00
21504;BME280;10913;51.992;9.228;2024-03-02T06:54:36;99120.84;;;7.15;100.00
21504;BME280;10913;51.992;9.228;2024-03-02T06:57:01;99118.06;;;7.29;100.00
21504;BME280;10913;51.992;9.228;2024-03-02T06:59:27;99123.13;;;7.43;100.00
21504;BME280;10913;51.992;9.228;2024-03-02T07:01:52;99116.81;;;7.59;100.00
21504;BME280;10913;51.992;9.228;2024-03-02T07:04:17;99119.94;;;7.82;100.00
21504;BME280;10913;51.992;9.228;2024-03-02T07:06:43;99119.63;;;8.04;100.00
21504;BME280;10913;51.992;9.228;2024-03-02T07:09:08;99111.53;;;8.17;100.00
21504;BME280;10913;51.992;9.228;2024-03-02T07:11:36;99112.09;;;8.39;100.00
21504;BME280;10913;51.992;9.228;2024-03-02T07:14:01;99111.88;;;8.50;99.54
21504;BME280;10913;51.992;9.228;2024-03-02T07:16:27;99111.84;;;8.99;97.56
21504;BME280;10913;51.992;9.228;2024-03-02T07:18:54;99118.47;;;9.60;95.17
21504;BME280;10913;51.992;9.228;2024-03-02T07:21:21;99117.66;;;9.96;92.83
21504;BME280;10913;51.992;9.228;2024-03-02T07:23:47;99115.84;;;10.37;90.42
21504;BME280;10913;51.992;9.228;2024-03-02T07:26:13;99104.50;;;10.66;88.54
21504;BME280;10913;51.992;9.228;2024-03-02T07:28:40;99109.03;;;10.95;87.36
21504;BME280;10913;51.992;9.228;2024-03-02T07:31:06;99101.97;;;11.26;85.99
21504;BME280;10913;51.992;9.228;2024-03-02T07:33:32;99110.25;;;11.44;85.28
21504;BME280;10913;51.992;9.228;2024-03-02T07:35:58;99109.56;;;12.24;83.09
21504;BME280;10913;51.992;9.228;2024-03-02T07:38:25;99111.13;;;12.82;79.73
21504;BME280;10913;51.992;9.228;2024-03-02T07:40:50;99113.97;;;13.01;78.63
21504;BME280;10913;51.992;9.228;2024-03-02T07:43:19;99108.03;;;13.19;77.55
21504;BME280;10913;51.992;9.228;2024-03-02T07:45:48;99108.75;;;13.24;77.78
21504;BME280;10913;51.992;9.228;2024-03-02T07:48:14;99112.69;;;13.13;77.54
21504;BME280;10913;51.992;9.228;2024-03-02T07:50:40;99117.19;;;12.86;77.82
21504;BME280;10913;51.992;9.228;2024-03-02T07:53:05;99110.25;;;12.57;79.31
21504;BME280;10913;51.992;9.228;2024-03-02T07:55:31;99118.34;;;12.26;80.49
21504;BME280;10913;51.992;9.228;2024-03-02T07:57:57;99129.31;;;11.86;81.49
21504;BME280;10913;51.992;9.228;2024-03-02T08:00:23;99124.97;;;11.54;82.77
21504;BME280;10913;51.992;9.228;2024-03-02T08:02:50;99138.41;;;11.15;83.79
21504;BME280;10913;51.992;9.228;2024-03-02T08:05:18;99143.75;;;10.80;84.52
21504;BME280;10913;51.992;9.228;2024-03-02T08:07:47;99146.38;;;10.47;85.94
21504;BME280;10913;51.992;9.228;2024-03-02T08:10:13;99151.41;;;10.21;86.67
21504;BME280;10913;51.992;9.228;2024-03-02T08:12:39;99151.94;;;9.98;87.71
21504;BME280;10913;51.992;9.228;2024-03-02T08:15:05;99155.00;;;9.78;88.38
21504;BME280;10913;51.992;9.228;2024-03-02T08:17:31;99155.25;;;9.66;89.34
21504;BME280;10913;51.992;9.228;2024-03-02T08:19:56;99152.72;;;9.61;89.34
21504;BME280;10913;51.992;9.228;2024-03-02T08:22:23;99151.94;;;9.58;89.87
21504;BME280;10913;51.992;9.228;2024-03-02T08:24:50;99149.38;;;9.55;90.02
21504;BME280;10913;51.992;9.228;2024-03-02T08:27:16;99152.19;;;9.46;90.25
21504;BME280;10913;51.992;9.228;2024-03-02T08:29:41;99149.53;;;9.46;90.51
21504;BME280;10913;51.992;9.228;2024-03-02T08:32:07;99157.50;;;9.43;90.30
21504;BME280;10913;51.992;9.228;2024-03-02T08:34:32;99157.44;;;9.46;90.38
21504;BME280;10913;51.992;9.228;2024-03-02T08:36:59;99159.13;;;9.50;90.21
21504;BME280;10913;51.992;9.228;2024-03-02T08:39:24;99151.94;;;9.58;90.29
21504;BME280;10913;51.992;9.228;2024-03-02T08:41:49;99164.00;;;9.68;89.78
21504;BME280;10913;51.992;9.228;2024-03-02T08:44:15;99158.38;;;9.85;89.25
21504;BME280;10913;51.992;9.228;2024-03-02T08:46:41;99166.53;;;10.13;88.21
21504;BME280;10913;51.992;9.228;2024-03-02T08:49:07;99162.34;;;10.41;86.62
21504;BME280;10913;51.992;9.228;2024-03-02T08:51:32;99159.38;;;10.89;85.00
21504;BME280;10913;51.992;9.228;2024-03-02T08:53:58;99156.72;;;11.21;83.95
21504;BME280;10913;51.992;9.228;2024-03-02T08:56:24;99155.31;;;11.40;83.10
21504;BME280;10913;51.992;9.228;2024-03-02T08:58:50;99160.78;;;11.34;82.26
21504;BME280;10913;51.992;9.228;2024-03-02T09:01:16;99160.13;;;11.26;82.60
21504;BME280;10913;51.992;9.228;2024-03-02T09:03:42;99157.22;;;11.03;83.10
21504;BME280;10913;51.992;9.228;2024-03-02T09:06:13;99158.06;;;11.05;83.48
21504;BME280;10913;51.992;9.228;2024-03-02T09:08:39;99161.81;;;10.98;83.21
21504;BME280;10913;51.992;9.228;2024-03-02T09:11:05;99155.00;;;10.88;83.27
21504;BME280;10913;51.992;9.228;2024-03-02T09:13:32;99158.06;;;11.05;83.46
21504;BME280;10913;51.992;9.228;2024-03-02T09:15:57;99159.06;;;11.63;82.00
21504;BME280;10913;51.992;9.228;2024-03-02T09:18:23;99158.13;;;13.02;78.25
21504;BME280;10913;51.992;9.228;2024-03-02T09:20:48;99149.97;;;14.48;72.99
21504;BME280;10913;51.992;9.228;2024-03-02T09:23:14;99142.59;;;15.58;69.17
21504;BME280;10913;51.992;9.228;2024-03-02T09:25:39;99146.59;;;16.23;67.17
21504;BME280;10913;51.992;9.228;2024-03-02T09:28:04;99134.50;;;16.34;66.38
21504;BME280;10913;51.992;9.228;2024-03-02T09:30:30;99139.47;;;16.04;66.16
21504;BME280;10913;51.992;9.228;2024-03-02T09:32:55;99146.19;;;15.75;66.74
21504;BME280;10913;51.992;9.228;2024-03-02T09:35:21;99146.53;;;15.47;67.19
21504;BME280;10913;51.992;9.228;2024-03-02T09:37:46;99150.22;;;15.25;67.63
21504;BME280;10913;51.992;9.228;2024-03-02T09:40:13;99147.25;;;15.32;67.72
21504;BME280;10913;51.992;9.228;2024-03-02T09:42:40;99147.28;;;15.51;67.51
21504;BME280;10913;51.992;9.228;2024-03-02T09:45:06;99146.19;;;15.57;67.33
21504;BME280;10913;51.992;9.228;2024-03-02T09:47:32;99146.19;;;15.36;67.04
21504;BME280;10913;51.992;9.228;2024-03-02T09:49:57;99143.81;;;15.49;67.42
21504;BME280;10913;51.992;9.228;2024-03-02T09:52:23;99148.47;;;15.83;67.21
21504;BME280;10913;51.992;9.228;2024-03-02T09:54:49;99150.34;;;16.00;66.48
21504;BME280;10913;51.992;9.228;2024-03-02T09:57:15;99140.84;;;16.32;66.36
21504;BME280;10913;51.992;9.228;2024-03-02T09:59:40;99137.00;;;16.37;65.10
21504;BME280;10913;51.992;9.228;2024-03-02T10:02:05;99139.81;;;16.34;64.33
21504;BME280;10913;51.992;9.228;2024-03-02T10:04:32;99135.78;;;16.62;64.71
21504;BME280;10913;51.992;9.228;2024-03-02T10:07:18;99134.66;;;16.84;64.47
21504;BME280;10913;51.992;9.228;2024-03-02T10:09:47;99139.06;;;16.49;63.98
21504;BME280;10913;51.992;9.228;2024-03-02T10:12:15;99137.22;;;16.33;63.90
21504;BME280;10913;51.992;9.228;2024-03-02T10:14:41;99140.88;;;15.94;64.59
21504;BME280;10913;51.992;9.228;2024-03-02T10:17:11;99136.88;;;15.65;65.53
21504;BME280;10913;51.992;9.228;2024-03-02T10:19:37;99135.47;;;15.58;65.30
21504;BME280;10913;51.992;9.228;2024-03-02T10:22:05;99144.47;;;15.74;65.48
21504;BME280;10913;51.992;9.228;2024-03-02T10:24:36;99144.34;;;15.77;65.37
21504;BME280;10913;51.992;9.228;2024-03-02T10:27:31;99141.66;;;15.38;65.87
21504;BME280;10913;51.992;9.228;2024-03-02T10:29:59;99134.59;;;15.37;66.77
21504;BME280;10913;51.992;9.228;2024-03-02T10:32:24;99132.72;;;14.99;67.27
21504;BME280;10913;51.992;9.228;2024-03-02T10:34:51;99146.66;;;14.63;67.57
21504;BME280;10913;51.992;9.228;2024-03-02T10:37:17;99150.91;;;14.47;68.13
21504;BME280;10913;51.992;9.228;2024-03-02T10:39:42;99137.72;;;14.44;69.08
21504;BME280;10913;51.992;9.228;2024-03-02T10:42:09;99145.22;;;14.56;68.70
21504;BME280;10913;51.992;9.228;2024-03-02T10:44:34;99139.47;;;14.87;68.63
21504;BME280;10913;51.992;9.228;2024-03-02T10:47:01;99141.00;;;15.13;68.20
21504;BME280;10913;51.992;9.228;2024-03-02T10:49:31;99135.31;;;15.41;67.48
21504;BME280;10913;51.992;9.228;2024-03-02T10:51:58;99135.22;;;15.63;66.60
21504;BME280;10913;51.992;9.228;2024-03-02T10:54:23;99145.25;;;15.76;66.03
21504;BME280;10913;51.992;9.228;2024-03-02T10:56:53;99141.94;;;15.90;66.23
21504;BME280;10913;51.992;9.228;2024-03-02T11:01:55;99141.78;;;16.12;64.60
21504;BME280;10913;51.992;9.228;2024-03-02T11:04:21;99143.75;;;16.08;63.79
21504;BME280;10913;51.992;9.228;2024-03-02T11:06:50;99141.41;;;16.38;63.82
21504;BME280;10913;51.992;9.228;2024-03-02T11:09:21;99139.38;;;16.25;63.53
21504;BME280;10913;51.992;9.228;2024-03-02T11:11:56;99141.13;;;16.26;63.40
21504;BME280;10913;51.992;9.228;2024-03-02T11:14:25;99139.78;;;16.17;62.84
21504;BME280;10913;51.992;9.228;2024-03-02T11:16:51;99131.78;;;16.17;63.44
21504;BME280;10913;51.992;9.228;2024-03-02T11:19:18;99135.50;;;16.32;63.75
21504;BME280;10913;51.992;9.228;2024-03-02T11:21:44;99128.78;;;16.42;62.94
21504;BME280;10913;51.992;9.228;2024-03-02T11:26:52;99132.16;;;16.45;62.66
21504;BME280;10913;51.992;9.228;2024-03-02T11:32:25;99122.75;;;16.74;63.26
21504;BME280;10913;51.992;9.228;2024-03-02T11:34:50;99117.41;;;16.92;62.29
21504;BME280;10913;51.992;9.228;2024-03-02T11:37:17;99116.84;;;16.85;61.73
21504;BME280;10913;51.992;9.228;2024-03-02T11:39:49;99117.38;;;17.09;62.12
21504;BME280;10913;51.992;9.228;2024-03-02T11:42:15;99113.69;;;17.11;61.93
21504;BME280;10913;51.992;9.228;2024-03-02T11:44:43;99116.72;;;17.21;61.60
21504;BME280;10913;51.992;9.228;2024-03-02T11:47:11;99116.13;;;16.99;62.21
21504;BME280;10913;51.992;9.228;2024-03-02T11:49:43;99113.94;;;17.07;62.63
21504;BME280;10913;51.992;9.228;2024-03-02T11:52:11;99110.63;;;17.02;63.13
21504;BME280;10913;51.992;9.228;2024-03-02T11:54:38;99104.84;;;16.94;62.71
21504;BME280;10913;51.992;9.228;2024-03-02T11:57:11;99109.97;;;16.45;63.61
21504;BME280;10913;51.992;9.228;2024-03-02T11:59:37;99102.44;;;16.36;64.40
21504;BME280;10913;51.992;9.228;2024-03-02T12:02:03;99096.34;;;16.51;64.12
21504;BME280;10913;51.992;9.228;2024-03-02T12:04:29;99108.13;;;16.28;64.58
21504;BME280;10913;51.992;9.228;2024-03-02T12:07:01;99098.00;;;16.17;64.85
21504;BME280;10913;51.992;9.228;2024-03-02T12:09:27;99101.44;;;16.19;64.91
21504;BME280;10913;51.992;9.228;2024-03-02T12:12:07;99108.84;;;16.32;65.47
21504;BME280;10913;51.992;9.228;2024-03-02T12:14:34;99099.50;;;16.23;65.24
21504;BME280;10913;51.992;9.228;2024-03-02T12:17:00;99101.53;;;16.18;64.82
21504;BME280;10913;51.992;9.228;2024-03-02T12:19:26;99104.28;;;16.16;65.24
21504;BME280;10913;51.992;9.228;2024-03-02T12:21:53;99109.44;;;16.19;65.67
21504;BME280;10913;51.992;9.228;2024-03-02T12:24:18;99094.78;;;16.11;65.41
21504;BME280;10913;51.992;9.228;2024-03-02T12:26:44;99108.84;;;15.96;65.41
21504;BME280;10913;51.992;9.228;2024-03-02T12:29:10;99099.97;;;15.95;65.89
21504;BME280;10913;51.992;9.228;2024-03-02T12:31:35;99099.25;;;15.92;65.77
21504;BME280;10913;51.992;9.228;2024-03-02T12:34:03;99106.25;;;15.94;65.92
21504;BME280;10913;51.992;9.228;2024-03-02T12:36:29;99097.25;;;15.97;65.39
21504;BME280;10913;51.992;9.228;2024-03-02T12:38:54;99094.00;;;15.90;65.93
21504;BME280;10913;51.992;9.228;2024-03-02T12:41:20;99090.19;;;15.96;65.69
21504;BME280;10913;51.992;9.228;2024-03-02T12:43:46;99084.78;;;15.97;66.29
21504;BME280;10913;51.992;9.228;2024-03-02T12:46:12;99082.41;;;15.91;65.64
21504;BME280;10913;51.992;9.228;2024-03-02T12:48:37;99077.50;;;15.82;65.92
21504;BME280;10913;51.992;9.228;2024-03-02T12:51:06;99079.75;;;15.91;66.60
21504;BME280;10913;51.992;9.228;2024-03-02T12:53:31;99076.94;;;15.94;65.73
21504;BME280;10913;51.992;9.228;2024-03-02T12:55:56;99075.34;;;15.90;65.44
21504;BME280;10913;51.992;9.228;2024-03-02T12:58:22;99071.16;;;16.03;66.15
21504;BME280;10913;51.992;9.228;2024-03-02T13:00:48;99079.34;;;16.17;65.69
21504;BME280;10913;51.992;9.228;2024-03-02T13:03:13;99077.31;;;16.23;65.08
21504;BME280;10913;51.992;9.228;2024-03-02T13:05:39;99067.50;;;16.23;65.03
21504;BME280;10913;51.992;9.228;2024-03-02T13:08:06;99069.16;;;16.26;65.29